Detall de PIREP

Printer-friendly versionPDF version

[2013/08/31 14:43:00]
Flight IATA:CT1001
Pilot Number:012
Company ICAO:CAT
Aircraft Type:F28/A
PAX:85
Departing Airport: LFKJ
Destination Airport: LICJ
Alternate Airport:LIRA
Online: VATSIM
Route:CORSI UM858 RAMEN UM732 CAR UM871 KAPIL
Flight Level:F250
No Slew and time accel
No pause
Crash detect
Detect pilot in Cockpit between each 30 and 45 minutes
14:43 Zero fuel Weight: 54669 Lbs, Fuel Weight: 11069 Lbs
14:43 VATSIM:LFKJ 311430Z 20012KT 9999 FEW050TCU 28/20 Q1016 NOSIG
14:43 VATSIM:LICJ 311420Z 05013KT 9999 FEW030 SCT050 28/21 Q1015
14:43 VOICE CATALONIAN / MEDITERRANEAN ODYSSEY
15:00 Parking Brakes off
15:05 Take-off
15:05 Take off Weight: 65305 Lbs
15:05 Wind: 198º @ 012 Knots Heading: 204º
15:05 POS N41º 54´ 55´´ E008º 47´ 49´´
15:05 Gear Up: 153 Knots
15:05 Flaps:1 at 153 Knots
15:05 Flaps:0 at 170 Knots
15:20 Wind:054º@014 Knots Heading: 174º Ground Speed: 366 Knots Altitude 24849 ft
15:20 TOC
15:20 Fuel Weight: 8834 Lb
15:35 Wind:216º@049 Knots Heading: 136º Ground Speed: 411 Knots Altitude 25059 ft
15:50 Wind:247º@028 Knots Heading: 113º Ground Speed: 444 Knots Altitude 25049 ft
15:53 TOD
15:53 Fuel Weight: 6199 Lb
16:05 Wind:290º@006 Knots Heading: 286º Ground Speed: 249 Knots Altitude 6811 ft
16:08 Flaps:1 at 206 Knots
16:08 Flaps:2 at 175 Knots
16:08 Gear Down: 158 Knots
16:08 Flaps:3 at 158 Knots
16:09 Flaps:4 at 155 Knots
16:09 Flaps:5 at 136 Knots
16:12 TouchDown:Rate -218 ft/min Speed: 114 Knots
16:13 VATSIM:LICJ 311550Z 06016KT 9999 FEW022 SCT050 28/21 Q1015
16:13 Land
16:13 Wind:057º@014 Knots
16:13 Heading: 069º
16:13 Flight Duration: 01:08
16:13 Landing Weight: 60216 Lbs
16:13 POS N38º 10´ 48´´ E013º 06´ 12´´
16:15 Parking brakes on
16:15 Block to Block Duration: 01:15
16:15 Final Fuel: 5449 Lbls
16:15 Spent Fuel: 5619 Lbls
16:15 Flight Length: 403 NM
16:15 TOD Land Length: 90 NM

Exportar CSV

Powered by Drupal - Modified by Danger4k